sensor_id;sensor_type;location;lat;lon;timestamp;temperature;humidity
7248;DHT22;3665;51.034;13.642;2023-11-19T00:00:22;3.90;99.90
7248;DHT22;3665;51.034;13.642;2023-11-19T01:07:07;3.20;99.90
7248;DHT22;3665;51.034;13.642;2023-11-19T01:18:18;3.20;99.90
7248;DHT22;3665;51.034;13.642;2023-11-19T01:40:59;3.20;1.00
7248;DHT22;3665;51.034;13.642;2023-11-19T01:45:49;3.20;1.00
7248;DHT22;3665;51.034;13.642;2023-11-19T01:51:23;3.20;1.00
7248;DHT22;3665;51.034;13.642;2023-11-19T01:56:23;3.30;1.00
7248;DHT22;3665;51.034;13.642;2023-11-19T02:07:35;3.70;1.00
7248;DHT22;3665;51.034;13.642;2023-11-19T02:12:27;3.80;99.90
7248;DHT22;3665;51.034;13.642;2023-11-19T02:17:28;3.90;99.90
7248;DHT22;3665;51.034;13.642;2023-11-19T02:27:53;4.20;99.90
7248;DHT22;3665;51.034;13.642;2023-11-19T02:33:10;4.10;99.90
7248;DHT22;3665;51.034;13.642;2023-11-19T02:38:16;4.10;99.90
7248;DHT22;3665;51.034;13.642;2023-11-19T02:43:10;4.00;99.90
7248;DHT22;3665;51.034;13.642;2023-11-19T02:48:10;4.10;99.90
7248;DHT22;3665;51.034;13.642;2023-11-19T02:53:09;4.00;99.90
7248;DHT22;3665;51.034;13.642;2023-11-19T02:58:32;3.90;99.90
7248;DHT22;3665;51.034;13.642;2023-11-19T03:03:34;4.10;99.90
7248;DHT22;3665;51.034;13.642;2023-11-19T03:08:25;4.00;99.90
7248;DHT22;3665;51.034;13.642;2023-11-19T03:24:06;4.20;99.90
7248;DHT22;3665;51.034;13.642;2023-11-19T03:34:54;4.40;91.80
7248;DHT22;3665;51.034;13.642;2023-11-19T03:40:25;4.40;72.70
7248;DHT22;3665;51.034;13.642;2023-11-19T03:45:39;4.40;80.40
7248;DHT22;3665;51.034;13.642;2023-11-19T03:50:47;4.40;80.60
7248;DHT22;3665;51.034;13.642;2023-11-19T03:55:37;4.40;91.90
7248;DHT22;3665;51.034;13.642;2023-11-19T04:00:24;4.50;88.90
7248;DHT22;3665;51.034;13.642;2023-11-19T04:05:24;4.40;99.90
7248;DHT22;3665;51.034;13.642;2023-11-19T04:10:12;4.40;94.20
7248;DHT22;3665;51.034;13.642;2023-11-19T04:15:19;4.50;99.90
7248;DHT22;3665;51.034;13.642;2023-11-19T04:20:31;4.60;85.30
7248;DHT22;3665;51.034;13.642;2023-11-19T04:25:16;4.50;99.60
7248;DHT22;3665;51.034;13.642;2023-11-19T04:30:56;4.50;99.90
7248;DHT22;3665;51.034;13.642;2023-11-19T04:35:43;4.50;99.90
7248;DHT22;3665;51.034;13.642;2023-11-19T04:41:03;4.50;99.90
7248;DHT22;3665;51.034;13.642;2023-11-19T04:46:22;4.50;99.90
7248;DHT22;3665;51.034;13.642;2023-11-19T04:51:42;4.40;1.00
7248;DHT22;3665;51.034;13.642;2023-11-19T05:08:03;4.50;1.00
7248;DHT22;3665;51.034;13.642;2023-11-19T05:13:16;4.40;1.00
7248;DHT22;3665;51.034;13.642;2023-11-19T05:18:41;4.30;1.00
7248;DHT22;3665;51.034;13.642;2023-11-19T05:24:33;4.30;99.90
7248;DHT22;3665;51.034;13.642;2023-11-19T05:29:55;4.30;99.90
7248;DHT22;3665;51.034;13.642;2023-11-19T05:36:02;4.40;99.90
7248;DHT22;3665;51.034;13.642;2023-11-19T05:41:41;4.50;99.90
7248;DHT22;3665;51.034;13.642;2023-11-19T05:47:16;4.50;99.90
7248;DHT22;3665;51.034;13.642;2023-11-19T05:52:50;4.60;99.90
7248;DHT22;3665;51.034;13.642;2023-11-19T06:22:07;4.90;99.90
7248;DHT22;3665;51.034;13.642;2023-11-19T06:27:25;5.10;99.90
7248;DHT22;3665;51.034;13.642;2023-11-19T06:32:14;5.20;99.90
7248;DHT22;3665;51.034;13.642;2023-11-19T06:37:00;5.30;99.90
7248;DHT22;3665;51.034;13.642;2023-11-19T06:41:55;5.40;99.90
7248;DHT22;3665;51.034;13.642;2023-11-19T06:46:59;5.50;99.90
7248;DHT22;3665;51.034;13.642;2023-11-19T06:51:57;5.60;99.90
7248;DHT22;3665;51.034;13.642;2023-11-19T06:56:46;5.80;99.90
7248;DHT22;3665;51.034;13.642;2023-11-19T07:01:52;5.90;99.90
7248;DHT22;3665;51.034;13.642;2023-11-19T07:07:14;6.10;99.90
7248;DHT22;3665;51.034;13.642;2023-11-19T07:12:15;6.30;99.90
7248;DHT22;3665;51.034;13.642;2023-11-19T07:17:06;6.50;99.90
7248;DHT22;3665;51.034;13.642;2023-11-19T07:22:06;6.60;99.90
7248;DHT22;3665;51.034;13.642;2023-11-19T07:27:16;6.70;99.90
7248;DHT22;3665;51.034;13.642;2023-11-19T07:32:32;6.80;99.90
7248;DHT22;3665;51.034;13.642;2023-11-19T07:37:34;7.10;99.90
7248;DHT22;3665;51.034;13.642;2023-11-19T07:42:20;7.30;99.90
7248;DHT22;3665;51.034;13.642;2023-11-19T07:47:09;7.40;99.90
7248;DHT22;3665;51.034;13.642;2023-11-19T07:52:17;7.60;99.90
7248;DHT22;3665;51.034;13.642;2023-11-19T07:57:38;7.70;99.90
7248;DHT22;3665;51.034;13.642;2023-11-19T08:03:12;8.00;99.90
7248;DHT22;3665;51.034;13.642;2023-11-19T08:08:15;8.10;99.90
7248;DHT22;3665;51.034;13.642;2023-11-19T08:13:03;8.20;99.90
7248;DHT22;3665;51.034;13.642;2023-11-19T08:18:05;8.40;99.90
7248;DHT22;3665;51.034;13.642;2023-11-19T08:23:32;8.50;99.90
7248;DHT22;3665;51.034;13.642;2023-11-19T08:28:47;8.40;99.90
7248;DHT22;3665;51.034;13.642;2023-11-19T08:33:34;8.40;99.90
7248;DHT22;3665;51.034;13.642;2023-11-19T08:38:23;8.60;99.90
7248;DHT22;3665;51.034;13.642;2023-11-19T08:43:45;8.90;99.90
7248;DHT22;3665;51.034;13.642;2023-11-19T08:49:08;9.30;99.90
7248;DHT22;3665;51.034;13.642;2023-11-19T08:54:06;9.70;99.90
7248;DHT22;3665;51.034;13.642;2023-11-19T08:59:12;9.80;99.90
7248;DHT22;3665;51.034;13.642;2023-11-19T09:04:12;9.60;99.90
7248;DHT22;3665;51.034;13.642;2023-11-19T09:10:12;9.50;99.90
7248;DHT22;3665;51.034;13.642;2023-11-19T09:15:25;9.50;99.90
7248;DHT22;3665;51.034;13.642;2023-11-19T09:20:45;9.50;99.90
7248;DHT22;3665;51.034;13.642;2023-11-19T09:25:50;9.40;99.90
7248;DHT22;3665;51.034;13.642;2023-11-19T09:30:36;9.60;99.90
7248;DHT22;3665;51.034;13.642;2023-11-19T09:41:36;9.60;99.90
7248;DHT22;3665;51.034;13.642;2023-11-19T09:46:44;9.90;99.90
7248;DHT22;3665;51.034;13.642;2023-11-19T09:52:46;10.10;99.90
7248;DHT22;3665;51.034;13.642;2023-11-19T09:57:52;10.40;99.90
7248;DHT22;3665;51.034;13.642;2023-11-19T10:02:40;10.50;99.90
7248;DHT22;3665;51.034;13.642;2023-11-19T10:07:25;10.50;99.90
7248;DHT22;3665;51.034;13.642;2023-11-19T10:12:11;10.50;99.90
7248;DHT22;3665;51.034;13.642;2023-11-19T10:17:01;10.30;99.90
7248;DHT22;3665;51.034;13.642;2023-11-19T10:21:52;10.20;99.90
7248;DHT22;3665;51.034;13.642;2023-11-19T10:26:36;10.30;99.90
7248;DHT22;3665;51.034;13.642;2023-11-19T10:31:23;10.40;99.90
7248;DHT22;3665;51.034;13.642;2023-11-19T10:36:43;10.40;99.90
7248;DHT22;3665;51.034;13.642;2023-11-19T10:41:51;10.40;99.90
7248;DHT22;3665;51.034;13.642;2023-11-19T10:46:53;10.60;99.90
7248;DHT22;3665;51.034;13.642;2023-11-19T10:51:44;10.80;99.90
7248;DHT22;3665;51.034;13.642;2023-11-19T10:56:55;11.00;99.90
7248;DHT22;3665;51.034;13.642;2023-11-19T11:02:09;10.90;99.90
7248;DHT22;3665;51.034;13.642;2023-11-19T11:06:54;11.00;99.90
7248;DHT22;3665;51.034;13.642;2023-11-19T11:12:04;11.00;99.90
7248;DHT22;3665;51.034;13.642;2023-11-19T11:17:01;10.90;99.90
7248;DHT22;3665;51.034;13.642;2023-11-19T11:22:06;10.90;99.90
7248;DHT22;3665;51.034;13.642;2023-11-19T11:33:32;11.00;99.90
7248;DHT22;3665;51.034;13.642;2023-11-19T11:38:21;11.10;62.70
7248;DHT22;3665;51.034;13.642;2023-11-19T11:48:47;11.10;1.00
7248;DHT22;3665;51.034;13.642;2023-11-19T11:53:48;10.90;1.00
7248;DHT22;3665;51.034;13.642;2023-11-19T11:58:41;10.70;99.90
7248;DHT22;3665;51.034;13.642;2023-11-19T12:03:43;10.90;99.90
7248;DHT22;3665;51.034;13.642;2023-11-19T12:08:31;11.10;99.90
7248;DHT22;3665;51.034;13.642;2023-11-19T12:13:52;11.50;93.10
7248;DHT22;3665;51.034;13.642;2023-11-19T12:18:41;11.90;89.30
7248;DHT22;3665;51.034;13.642;2023-11-19T12:23:43;12.10;40.70
7248;DHT22;3665;51.034;13.642;2023-11-19T12:29:21;12.50;17.30
7248;DHT22;3665;51.034;13.642;2023-11-19T12:34:37;12.50;1.90
7248;DHT22;3665;51.034;13.642;2023-11-19T12:39:29;12.40;1.00
7248;DHT22;3665;51.034;13.642;2023-11-19T12:44:14;12.30;1.00
7248;DHT22;3665;51.034;13.642;2023-11-19T12:49:17;12.10;1.00
7248;DHT22;3665;51.034;13.642;2023-11-19T12:54:05;12.10;1.00
7248;DHT22;3665;51.034;13.642;2023-11-19T12:58:54;12.10;1.00
7248;DHT22;3665;51.034;13.642;2023-11-19T13:03:39;12.00;1.00
7248;DHT22;3665;51.034;13.642;2023-11-19T13:08:27;12.10;1.00
7248;DHT22;3665;51.034;13.642;2023-11-19T13:13:57;11.90;1.00
7248;DHT22;3665;51.034;13.642;2023-11-19T13:18:51;11.60;1.00
7248;DHT22;3665;51.034;13.642;2023-11-19T13:23:42;11.40;1.00
7248;DHT22;3665;51.034;13.642;2023-11-19T13:28:46;11.30;1.00
7248;DHT22;3665;51.034;13.642;2023-11-19T13:34:07;11.20;1.00
7248;DHT22;3665;51.034;13.642;2023-11-19T13:39:10;11.20;1.00
7248;DHT22;3665;51.034;13.642;2023-11-19T13:43:55;11.20;1.00
7248;DHT22;3665;51.034;13.642;2023-11-19T13:54:40;11.40;1.00
7248;DHT22;3665;51.034;13.642;2023-11-19T14:00:16;11.40;1.00
7248;DHT22;3665;51.034;13.642;2023-11-19T14:06:05;11.40;1.00
7248;DHT22;3665;51.034;13.642;2023-11-19T14:10:57;11.40;1.00
7248;DHT22;3665;51.034;13.642;2023-11-19T14:15:56;11.20;1.00
7248;DHT22;3665;51.034;13.642;2023-11-19T14:21:16;11.10;1.00
7248;DHT22;3665;51.034;13.642;2023-11-19T14:26:20;11.10;1.00
7248;DHT22;3665;51.034;13.642;2023-11-19T14:31:08;11.00;1.00
7248;DHT22;3665;51.034;13.642;2023-11-19T14:35:58;10.70;1.00
7248;DHT22;3665;51.034;13.642;2023-11-19T14:41:54;10.70;1.00
7248;DHT22;3665;51.034;13.642;2023-11-19T14:46:53;10.70;1.00
7248;DHT22;3665;51.034;13.642;2023-11-19T14:57:21;10.70;1.00
7248;DHT22;3665;51.034;13.642;2023-11-19T15:13:35;10.30;1.00
7248;DHT22;3665;51.034;13.642;2023-11-19T15:18:21;10.10;1.00
7248;DHT22;3665;51.034;13.642;2023-11-19T15:23:08;10.00;1.00
7248;DHT22;3665;51.034;13.642;2023-11-19T15:27:55;9.80;1.00
7248;DHT22;3665;51.034;13.642;2023-11-19T15:32:43;9.60;1.00
7248;DHT22;3665;51.034;13.642;2023-11-19T15:38:08;9.50;1.00
7248;DHT22;3665;51.034;13.642;2023-11-19T15:42:54;9.50;1.00
7248;DHT22;3665;51.034;13.642;2023-11-19T15:48:11;9.50;1.00
7248;DHT22;3665;51.034;13.642;2023-11-19T15:53:21;9.40;1.00
7248;DHT22;3665;51.034;13.642;2023-11-19T15:58:10;9.40;1.00
7248;DHT22;3665;51.034;13.642;2023-11-19T16:03:08;9.30;1.00
7248;DHT22;3665;51.034;13.642;2023-11-19T16:08:02;9.30;1.00
7248;DHT22;3665;51.034;13.642;2023-11-19T16:13:19;9.20;1.00
7248;DHT22;3665;51.034;13.642;2023-11-19T16:18:20;9.30;1.00
7248;DHT22;3665;51.034;13.642;2023-11-19T16:23:09;9.30;1.00
7248;DHT22;3665;51.034;13.642;2023-11-19T16:28:04;9.30;1.00
7248;DHT22;3665;51.034;13.642;2023-11-19T16:34:07;9.30;1.00
7248;DHT22;3665;51.034;13.642;2023-11-19T16:44:30;9.10;1.00
7248;DHT22;3665;51.034;13.642;2023-11-19T16:54:55;9.20;1.00
7248;DHT22;3665;51.034;13.642;2023-11-19T17:05:19;9.20;1.00
7248;DHT22;3665;51.034;13.642;2023-11-19T17:15:58;9.10;1.00
7248;DHT22;3665;51.034;13.642;2023-11-19T17:21:06;9.10;1.00
7248;DHT22;3665;51.034;13.642;2023-11-19T17:26:37;9.10;1.00
7248;DHT22;3665;51.034;13.642;2023-11-19T17:31:31;9.30;1.00
7248;DHT22;3665;51.034;13.642;2023-11-19T17:36:31;9.00;1.00
7248;DHT22;3665;51.034;13.642;2023-11-19T17:41:17;8.90;1.00
7248;DHT22;3665;51.034;13.642;2023-11-19T17:46:53;8.90;1.00
7248;DHT22;3665;51.034;13.642;2023-11-19T17:51:59;8.90;1.00
7248;DHT22;3665;51.034;13.642;2023-11-19T17:56:47;8.90;1.00
7248;DHT22;3665;51.034;13.642;2023-11-19T18:01:50;9.00;1.00
7248;DHT22;3665;51.034;13.642;2023-11-19T18:24:15;9.10;1.00
7248;DHT22;3665;51.034;13.642;2023-11-19T18:46:54;8.80;1.00
7248;DHT22;3665;51.034;13.642;2023-11-19T19:41:10;9.30;1.00
7248;DHT22;3665;51.034;13.642;2023-11-19T20:10:29;9.50;1.00
7248;DHT22;3665;51.034;13.642;2023-11-19T20:16:03;9.50;1.00
7248;DHT22;3665;51.034;13.642;2023-11-19T20:26:42;9.30;1.00
7248;DHT22;3665;51.034;13.642;2023-11-19T20:32:32;9.30;1.00
7248;DHT22;3665;51.034;13.642;2023-11-19T20:37:25;9.40;1.00
7248;DHT22;3665;51.034;13.642;2023-11-19T20:48:35;9.40;1.00
7248;DHT22;3665;51.034;13.642;2023-11-19T20:53:36;9.50;1.00
7248;DHT22;3665;51.034;13.642;2023-11-19T20:58:45;9.50;1.00
7248;DHT22;3665;51.034;13.642;2023-11-19T21:03:44;9.40;34.80
7248;DHT22;3665;51.034;13.642;2023-11-19T21:09:04;9.20;76.60
7248;DHT22;3665;51.034;13.642;2023-11-19T21:14:37;9.10;52.60
7248;DHT22;3665;51.034;13.642;2023-11-19T21:20:00;9.00;65.10
7248;DHT22;3665;51.034;13.642;2023-11-19T21:25:11;9.00;48.70
7248;DHT22;3665;51.034;13.642;2023-11-19T21:30:43;9.00;41.90
7248;DHT22;3665;51.034;13.642;2023-11-19T21:55:02;9.10;12.00
7248;DHT22;3665;51.034;13.642;2023-11-19T22:00:34;9.20;1.00
7248;DHT22;3665;51.034;13.642;2023-11-19T22:05:19;9.20;39.50
7248;DHT22;3665;51.034;13.642;2023-11-19T22:11:31;9.10;88.70
7248;DHT22;3665;51.034;13.642;2023-11-19T22:16:29;9.10;75.70
7248;DHT22;3665;51.034;13.642;2023-11-19T22:21:55;9.10;48.80
7248;DHT22;3665;51.034;13.642;2023-11-19T22:26:47;9.10;59.80
7248;DHT22;3665;51.034;13.642;2023-11-19T22:32:52;9.10;27.10
7248;DHT22;3665;51.034;13.642;2023-11-19T22:37:50;9.20;40.50
7248;DHT22;3665;51.034;13.642;2023-11-19T22:48:17;9.10;90.30
7248;DHT22;3665;51.034;13.642;2023-11-19T22:53:22;9.30;35.40
7248;DHT22;3665;51.034;13.642;2023-11-19T22:59:15;9.10;34.50
7248;DHT22;3665;51.034;13.642;2023-11-19T23:04:15;9.20;9.30
7248;DHT22;3665;51.034;13.642;2023-11-19T23:10:33;9.10;9.20
7248;DHT22;3665;51.034;13.642;2023-11-19T23:15:44;9.30;1.00
7248;DHT22;3665;51.034;13.642;2023-11-19T23:20:43;9.40;10.40
7248;DHT22;3665;51.034;13.642;2023-11-19T23:26:00;9.20;34.80
7248;DHT22;3665;51.034;13.642;2023-11-19T23:36:13;9.20;1.00
7248;DHT22;3665;51.034;13.642;2023-11-19T23:46:54;9.30;1.00
7248;DHT22;3665;51.034;13.642;2023-11-19T23:57:32;9.40;1.00
